Time;durP1;ratioP1;P1;durP2;ratioP2;P2;SDS_P1;SDS_P2;PMS_P1;PMS_P2;Temp;Humidity;BMP_temperature;BMP_pressure;BME280_temperature;BME280_humidity;BME280_pressure;Samples;Min_cycle;Max_cycle;Signal;HPM_P1;HPM_P2
2023/01/27 00:00:06;;;;;;;;;;;;;;;4.38;54.43;100524.25;5379266;32;32399;-79
2023/01/27 00:03:12;;;;;;;;;;;;;;;4.38;54.45;100516.44;5407596;32;33918;-80
2023/01/27 00:06:14;;;;;;;;;;;;;;;3.51;57.49;100512.09;5379526;32;45200;-79
2023/01/27 00:09:16;;;;;;;;;;;;;;;3.82;57.02;100511.84;5408683;32;36970;-79
2023/01/27 00:15:47;;;;;;;;;;;;;;;3.44;58.19;100521.69;5353804;32;44932;-81
2023/01/27 00:18:49;;;;;;;;;;;;;;;4.05;57.18;100513.31;5412829;32;35529;-80
2023/01/27 00:25:12;;;;;;;;;;;;;;;3.88;58.20;100511.78;5408215;32;33352;-80
2023/01/27 00:28:21;;;;;;;;;;;;;;;4.29;57.57;100512.19;5394669;32;44543;-79
2023/01/27 00:34:44;;;;;;;;;;;;;;;4.11;57.31;100496.78;5411495;32;44595;-79
2023/01/27 00:37:46;;;;;;;;;;;;;;;3.97;58.12;100502.13;5390230;32;36206;-79
2023/01/27 00:41:14;;;;;;;;;;;;;;;4.83;54.89;100501.09;5407660;32;34131;-79
2023/01/27 00:44:12;;;;;;;;;;;;;;;3.86;56.50;100500.50;5378895;32;36307;-80
2023/01/27 00:47:14;;;;;;;;;;;;;;;3.75;57.27;100504.09;5388222;32;44511;-79
2023/01/27 00:50:16;;;;;;;;;;;;;;;3.05;58.92;100511.59;5403667;32;36066;-81
2023/01/27 00:53:18;;;;;;;;;;;;;;;3.51;57.89;100506.91;5392794;32;35190;-81
2023/01/27 00:56:20;;;;;;;;;;;;;;;3.28;58.17;100495.81;5414413;32;35950;-81
2023/01/27 00:59:22;;;;;;;;;;;;;;;3.64;57.14;100505.06;5392411;32;36865;-81
2023/01/27 01:02:24;;;;;;;;;;;;;;;3.58;56.99;100502.53;5397783;32;34906;-80
2023/01/27 01:05:26;;;;;;;;;;;;;;;4.13;55.71;100494.19;5402624;32;34588;-79
2023/01/27 01:08:29;;;;;;;;;;;;;;;3.63;57.05;100500.75;5387190;32;35101;-78
2023/01/27 01:11:31;;;;;;;;;;;;;;;2.98;58.26;100501.25;5398959;32;34835;-78
2023/01/27 01:14:33;;;;;;;;;;;;;;;3.01;58.50;100508.13;5386519;32;34467;-79
2023/01/27 01:17:35;;;;;;;;;;;;;;;3.15;58.85;100502.84;5409747;32;34455;-80
2023/01/27 01:20:37;;;;;;;;;;;;;;;3.19;58.02;100497.63;5390128;32;34198;-78
2023/01/27 01:23:40;;;;;;;;;;;;;;;3.32;58.24;100503.59;5402006;32;35060;-81
2023/01/27 01:26:42;;;;;;;;;;;;;;;3.07;58.25;100486.47;5399953;32;32888;-80
2023/01/27 01:29:44;;;;;;;;;;;;;;;2.73;59.52;100497.06;5395091;32;45183;-80
2023/01/27 01:32:46;;;;;;;;;;;;;;;3.08;58.86;100498.56;5406595;32;35553;-81
2023/01/27 01:35:48;;;;;;;;;;;;;;;3.59;57.39;100494.69;5391263;32;35005;-79
2023/01/27 01:38:53;;;;;;;;;;;;;;;3.73;57.20;100490.22;5408993;32;34918;-78
2023/01/27 01:41:55;;;;;;;;;;;;;;;2.80;59.86;100492.69;5381149;32;34279;-79
2023/01/27 01:45:16;;;;;;;;;;;;;;;3.43;58.65;100493.12;5393762;32;35406;-80
2023/01/27 01:48:37;;;;;;;;;;;;;;;2.39;62.10;100494.63;5409828;32;44634;-79
2023/01/27 01:51:39;;;;;;;;;;;;;;;2.84;60.57;100497.00;5393807;32;36212;-77
2023/01/27 01:54:42;;;;;;;;;;;;;;;3.07;59.71;100491.66;5402478;32;34877;-79
2023/01/27 01:57:44;;;;;;;;;;;;;;;3.17;59.28;100491.59;5390259;32;45282;-79
2023/01/27 02:00:46;;;;;;;;;;;;;;;2.77;60.31;100480.63;5402597;32;34412;-78
2023/01/27 02:03:53;;;;;;;;;;;;;;;3.19;59.80;100489.84;5389705;32;34978;-78
2023/01/27 02:06:58;;;;;;;;;;;;;;;3.61;58.58;100485.19;5379413;32;34769;-80
2023/01/27 02:10:00;;;;;;;;;;;;;;;3.94;56.94;100470.13;5412815;32;34861;-81
2023/01/27 02:13:01;;;;;;;;;;;;;;;3.40;59.15;100482.75;5387177;32;35398;-79
2023/01/27 02:16:04;;;;;;;;;;;;;;;3.68;58.74;100473.84;5388718;32;34541;-80
2023/01/27 02:19:06;;;;;;;;;;;;;;;3.87;57.91;100466.72;5390818;32;34444;-81
2023/01/27 02:22:09;;;;;;;;;;;;;;;3.46;57.83;100462.75;5392949;32;35384;-80
2023/01/27 02:25:19;;;;;;;;;;;;;;;2.82;59.96;100463.25;5412138;32;36188;-80
2023/01/27 02:28:21;;;;;;;;;;;;;;;2.98;59.47;100462.28;5385752;32;44834;-79
2023/01/27 02:31:23;;;;;;;;;;;;;;;2.79;60.92;100465.88;5404647;32;35552;-78
2023/01/27 02:34:27;;;;;;;;;;;;;;;3.06;59.42;100459.62;5395584;32;35872;-81
2023/01/27 02:37:29;;;;;;;;;;;;;;;3.37;58.14;100451.59;5403508;32;35391;-79
2023/01/27 02:40:31;;;;;;;;;;;;;;;3.28;58.50;100441.28;5383905;32;34615;-78
2023/01/27 02:43:33;;;;;;;;;;;;;;;2.93;58.65;100440.69;5367056;32;35003;-78
2023/01/27 02:46:35;;;;;;;;;;;;;;;3.45;57.71;100434.19;5412868;32;35329;-80
2023/01/27 02:49:37;;;;;;;;;;;;;;;3.90;56.11;100430.28;5395700;32;36520;-79
2023/01/27 02:52:39;;;;;;;;;;;;;;;3.31;57.87;100426.53;5402095;32;33982;-79
2023/01/27 02:55:41;;;;;;;;;;;;;;;3.42;56.77;100424.72;5395764;32;35015;-81
2023/01/27 02:58:43;;;;;;;;;;;;;;;2.67;58.76;100430.47;5406763;32;45610;-78
2023/01/27 03:01:45;;;;;;;;;;;;;;;2.96;58.01;100427.69;5396485;32;34723;-79
2023/01/27 03:04:48;;;;;;;;;;;;;;;2.87;58.04;100413.91;5379024;32;35796;-80
2023/01/27 03:07:50;;;;;;;;;;;;;;;3.54;56.51;100415.91;5407931;32;35151;-79
2023/01/27 03:10:52;;;;;;;;;;;;;;;3.14;57.03;100416.28;5386223;32;35422;-78
2023/01/27 03:13:54;;;;;;;;;;;;;;;3.66;55.53;100409.72;5391162;32;34573;-80
2023/01/27 03:20:17;;;;;;;;;;;;;;;2.67;58.16;100407.13;5405512;32;44544;-79
2023/01/27 03:23:19;;;;;;;;;;;;;;;2.34;58.88;100396.94;5397710;32;35415;-79
2023/01/27 03:26:21;;;;;;;;;;;;;;;2.50;57.45;100413.28;5384624;32;34966;-77
2023/01/27 03:32:47;;;;;;;;;;;;;;;2.45;57.49;100397.75;5389490;32;45429;-78
2023/01/27 03:35:48;;;;;;;;;;;;;;;2.35;58.00;100393.47;5412143;32;34730;-77
2023/01/27 03:48:53;;;;;;;;;;;;;;;2.56;56.68;100393.34;5388772;32;45005;-78
2023/01/27 03:51:55;;;;;;;;;;;;;;;2.72;56.43;100386.34;5404097;32;34984;-80
2023/01/27 03:54:57;;;;;;;;;;;;;;;3.00;55.02;100374.00;5389045;32;34918;-78
2023/01/27 03:58:18;;;;;;;;;;;;;;;3.25;54.70;100380.69;5385376;32;34923;-80
2023/01/27 04:01:21;;;;;;;;;;;;;;;3.05;55.16;100377.41;5407849;32;44684;-78
2023/01/27 04:07:44;;;;;;;;;;;;;;;3.14;54.94;100369.53;5409268;32;44938;-78
2023/01/27 04:11:53;;;;;;;;;;;;;;;2.58;55.73;100364.81;5397398;32;34413;-78
2023/01/27 04:14:08;;;;;;;;;;;;;;;2.08;58.15;100379.78;5388102;32;34946;-78
2023/01/27 04:17:14;;;;;;;;;;;;;;;2.47;56.91;100367.47;5405190;32;34494;-79
2023/01/27 04:20:17;;;;;;;;;;;;;;;1.70;58.89;100381.66;5392972;32;45754;-79
2023/01/27 04:23:19;;;;;;;;;;;;;;;2.90;56.32;100368.03;5397172;32;33764;-78
2023/01/27 04:26:21;;;;;;;;;;;;;;;2.98;55.24;100370.56;5387019;32;35492;-78
2023/01/27 04:29:24;;;;;;;;;;;;;;;2.28;57.28;100363.28;5394825;32;35124;-78
2023/01/27 04:32:26;;;;;;;;;;;;;;;3.44;54.56;100368.38;5393499;32;34384;-80
2023/01/27 04:35:28;;;;;;;;;;;;;;;3.21;55.04;100367.75;5393105;32;35399;-79
2023/01/27 04:38:39;;;;;;;;;;;;;;;2.92;55.92;100374.06;5408019;32;34605;-79
2023/01/27 04:41:41;;;;;;;;;;;;;;;2.73;55.96;100372.47;5378560;32;34743;-81
2023/01/27 04:44:43;;;;;;;;;;;;;;;2.62;56.02;100376.88;5376099;32;45399;-79
2023/01/27 04:47:45;;;;;;;;;;;;;;;3.15;55.18;100373.84;5383993;32;35432;-78
2023/01/27 04:50:47;;;;;;;;;;;;;;;3.12;54.15;100373.88;5389523;32;34885;-78
2023/01/27 04:53:49;;;;;;;;;;;;;;;2.31;57.10;100383.97;5408416;32;35119;-80
2023/01/27 04:56:56;;;;;;;;;;;;;;;2.83;55.50;100381.91;5387164;32;35429;-79
2023/01/27 04:59:58;;;;;;;;;;;;;;;2.99;55.48;100385.25;5408435;32;36895;-80
2023/01/27 05:03:00;;;;;;;;;;;;;;;3.61;53.41;100378.63;5389547;32;34466;-79
2023/01/27 05:06:03;;;;;;;;;;;;;;;3.59;53.09;100387.28;5414099;32;34987;-80
2023/01/27 05:09:05;;;;;;;;;;;;;;;3.16;54.16;100392.91;5381546;32;34661;-80
2023/01/27 05:12:07;;;;;;;;;;;;;;;2.35;56.44;100389.16;5358806;32;34978;-79
2023/01/27 05:15:09;;;;;;;;;;;;;;;3.43;54.35;100391.78;5402318;32;34097;-79
2023/01/27 05:18:12;;;;;;;;;;;;;;;2.78;55.25;100393.22;5387659;32;34716;-78
2023/01/27 05:21:18;;;;;;;;;;;;;;;2.85;55.35;100385.38;5408682;32;44927;-80
2023/01/27 05:24:20;;;;;;;;;;;;;;;3.16;54.69;100372.13;5387255;32;34215;-81
2023/01/27 05:27:22;;;;;;;;;;;;;;;1.70;58.43;100390.31;5395695;32;35213;-81
2023/01/27 05:30:24;;;;;;;;;;;;;;;1.79;58.26;100373.84;5398159;32;35050;-80
2023/01/27 05:33:25;;;;;;;;;;;;;;;2.96;55.17;100382.66;5393069;32;35523;-80
2023/01/27 05:36:28;;;;;;;;;;;;;;;3.37;54.06;100392.72;5408809;32;34734;-82
2023/01/27 05:39:30;;;;;;;;;;;;;;;2.85;54.75;100382.78;5393242;32;34907;-79
2023/01/27 05:42:32;;;;;;;;;;;;;;;2.99;54.80;100391.31;5390575;32;34344;-79
2023/01/27 05:45:34;;;;;;;;;;;;;;;2.75;55.73;100393.22;5389181;32;34929;-79
2023/01/27 05:48:37;;;;;;;;;;;;;;;3.26;54.31;100382.41;5401433;32;33961;-79
2023/01/27 05:51:39;;;;;;;;;;;;;;;3.16;53.65;100396.37;5403499;32;38004;-81
2023/01/27 05:54:41;;;;;;;;;;;;;;;2.89;54.23;100374.06;5395285;32;34655;-80
2023/01/27 05:57:43;;;;;;;;;;;;;;;3.18;53.20;100386.81;5407625;32;44436;-80
2023/01/27 06:00:45;;;;;;;;;;;;;;;3.13;53.20;100386.00;5382945;32;35551;-78
2023/01/27 06:03:47;;;;;;;;;;;;;;;3.15;52.54;100384.22;5407993;32;35311;-79
2023/01/27 06:06:49;;;;;;;;;;;;;;;2.25;55.65;100382.28;5378201;32;34774;-78
2023/01/27 06:09:51;;;;;;;;;;;;;;;2.95;54.11;100388.75;5406387;32;36986;-78
2023/01/27 06:12:53;;;;;;;;;;;;;;;2.92;53.49;100375.81;5394709;32;35021;-81
2023/01/27 06:15:55;;;;;;;;;;;;;;;3.09;53.25;100373.94;5388003;32;34769;-78
2023/01/27 06:18:57;;;;;;;;;;;;;;;2.34;54.45;100383.97;5408258;32;35087;-79
2023/01/27 06:21:59;;;;;;;;;;;;;;;1.96;55.76;100376.37;5390118;32;35690;-78
2023/01/27 06:25:01;;;;;;;;;;;;;;;2.65;53.72;100362.16;5402146;32;34319;-81
2023/01/27 06:28:03;;;;;;;;;;;;;;;3.02;52.42;100364.44;5386197;32;34683;-81
2023/01/27 06:31:08;;;;;;;;;;;;;;;2.83;52.75;100374.12;5395624;32;34908;-79
2023/01/27 06:34:10;;;;;;;;;;;;;;;3.30;50.64;100378.06;5401955;32;34811;-81
2023/01/27 06:37:12;;;;;;;;;;;;;;;2.50;52.31;100376.97;5373393;32;36390;-81
2023/01/27 06:40:15;;;;;;;;;;;;;;;2.90;51.16;100381.00;5410484;32;35842;-79
2023/01/27 06:43:17;;;;;;;;;;;;;;;2.89;51.44;100381.00;5376278;32;34678;-81
2023/01/27 06:46:19;;;;;;;;;;;;;;;3.03;50.58;100381.78;5405447;32;34948;-82
2023/01/27 06:49:21;;;;;;;;;;;;;;;2.88;50.92;100382.72;5394470;32;34715;-78
2023/01/27 06:52:23;;;;;;;;;;;;;;;2.83;50.07;100381.03;5403156;32;36032;-80
2023/01/27 06:55:25;;;;;;;;;;;;;;;2.95;50.31;100384.41;5407127;32;35096;-81
2023/01/27 06:58:27;;;;;;;;;;;;;;;2.93;49.40;100380.13;5396165;32;34660;-80
2023/01/27 07:01:29;;;;;;;;;;;;;;;3.01;49.31;100393.88;5411517;32;35415;-80
2023/01/27 07:04:31;;;;;;;;;;;;;;;2.94;49.03;100390.47;5400044;32;34881;-81
2023/01/27 07:07:33;;;;;;;;;;;;;;;3.54;47.81;100382.13;5411231;32;34666;-81
2023/01/27 07:10:35;;;;;;;;;;;;;;;3.30;47.81;100385.00;5398791;32;34463;-81
2023/01/27 07:13:37;;;;;;;;;;;;;;;3.15;48.32;100391.16;5396879;32;34922;-79
2023/01/27 07:16:39;;;;;;;;;;;;;;;3.62;47.71;100380.34;5387670;32;34945;-79
2023/01/27 07:19:41;;;;;;;;;;;;;;;3.93;46.34;100390.34;5401933;32;33230;-79
2023/01/27 07:22:43;;;;;;;;;;;;;;;2.94;48.05;100394.81;5414280;32;44771;-79
2023/01/27 07:25:45;;;;;;;;;;;;;;;3.82;46.41;100393.09;5400719;32;34767;-82
2023/01/27 07:28:47;;;;;;;;;;;;;;;2.74;49.00;100397.56;5416184;32;34874;-81
2023/01/27 07:31:50;;;;;;;;;;;;;;;4.24;46.14;100401.25;5403371;32;34378;-81
2023/01/27 07:34:52;;;;;;;;;;;;;;;3.18;48.44;100405.00;5412603;32;36274;-82
2023/01/27 07:37:55;;;;;;;;;;;;;;;2.86;48.49;100407.84;5412116;32;34942;-79
2023/01/27 07:40:58;;;;;;;;;;;;;;;3.78;47.26;100400.06;5405773;32;34326;-80
2023/01/27 07:44:00;;;;;;;;;;;;;;;3.30;47.53;100392.78;5400546;32;34917;-80
2023/01/27 07:47:02;;;;;;;;;;;;;;;3.46;48.06;100386.56;5398324;32;34473;-81
2023/01/27 07:50:04;;;;;;;;;;;;;;;2.67;49.85;100393.28;5427850;32;34370;-81
2023/01/27 07:53:06;;;;;;;;;;;;;;;2.50;49.72;100387.34;5405396;32;36664;-81
2023/01/27 07:56:11;;;;;;;;;;;;;;;3.99;46.93;100372.09;5405164;32;35702;-79
2023/01/27 07:59:13;;;;;;;;;;;;;;;2.91;49.31;100389.66;5414662;32;43363;-82
2023/01/27 08:02:15;;;;;;;;;;;;;;;3.83;47.21;100383.56;5407089;32;35205;-80
2023/01/27 08:05:19;;;;;;;;;;;;;;;3.42;47.52;100390.94;5418461;32;35335;-80
2023/01/27 08:08:21;;;;;;;;;;;;;;;3.07;48.64;100387.78;5404338;32;35467;-82
2023/01/27 08:11:23;;;;;;;;;;;;;;;3.78;47.05;100394.00;5418044;32;35086;-80
2023/01/27 08:14:25;;;;;;;;;;;;;;;4.52;45.21;100396.56;5400511;32;34978;-81
2023/01/27 08:17:26;;;;;;;;;;;;;;;3.65;47.12;100393.28;5401532;32;35205;-81
2023/01/27 08:20:28;;;;;;;;;;;;;;;3.13;48.25;100391.19;5424208;32;34310;-80
2023/01/27 08:23:31;;;;;;;;;;;;;;;3.56;46.90;100390.78;5401939;32;34804;-81
2023/01/27 08:26:33;;;;;;;;;;;;;;;2.75;49.18;100406.19;5409499;32;34761;-81
2023/01/27 08:29:35;;;;;;;;;;;;;;;3.10;48.49;100401.62;5393296;32;34798;-79
2023/01/27 08:32:37;;;;;;;;;;;;;;;3.57;47.29;100402.91;5412059;32;34298;-82
2023/01/27 08:35:43;;;;;;;;;;;;;;;2.92;48.62;100400.03;5409606;32;34663;-81
2023/01/27 08:38:45;;;;;;;;;;;;;;;3.04;47.93;100400.81;5400460;32;45210;-80
2023/01/27 08:41:47;;;;;;;;;;;;;;;3.68;46.12;100401.06;5408930;32;35306;-79
2023/01/27 08:44:49;;;;;;;;;;;;;;;3.92;45.88;100399.91;5395410;32;35446;-81
2023/01/27 08:47:51;;;;;;;;;;;;;;;3.22;47.60;100411.00;5419293;32;34955;-79
2023/01/27 08:50:53;;;;;;;;;;;;;;;3.15;47.32;100412.81;5401605;32;34535;-81
2023/01/27 08:53:55;;;;;;;;;;;;;;;3.43;47.57;100418.62;5416920;32;35638;-82
2023/01/27 08:56:57;;;;;;;;;;;;;;;3.06;47.64;100420.69;5407765;32;34828;-81
2023/01/27 08:59:59;;;;;;;;;;;;;;;3.44;46.95;100406.50;5411358;32;35538;-80
2023/01/27 09:03:01;;;;;;;;;;;;;;;3.73;46.81;100409.66;5412561;32;35275;-82
2023/01/27 09:06:04;;;;;;;;;;;;;;;4.29;44.99;100410.72;5405887;32;33836;-81
2023/01/27 09:09:08;;;;;;;;;;;;;;;3.94;45.23;100418.97;5421139;32;34350;-82
2023/01/27 09:12:13;;;;;;;;;;;;;;;3.44;46.59;100416.91;5396256;32;45321;-79
2023/01/27 09:15:15;;;;;;;;;;;;;;;3.16;47.88;100422.34;5414423;32;35763;-83
2023/01/27 09:18:18;;;;;;;;;;;;;;;3.18;47.29;100420.59;5397964;32;34976;-81
2023/01/27 09:21:20;;;;;;;;;;;;;;;3.14;47.35;100418.88;5402969;32;35207;-79
2023/01/27 09:24:23;;;;;;;;;;;;;;;4.10;45.81;100417.03;5424023;32;35032;-80
2023/01/27 09:27:25;;;;;;;;;;;;;;;3.85;45.84;100428.59;5409645;32;34286;-79
2023/01/27 09:30:40;;;;;;;;;;;;;;;3.02;47.79;100433.69;5414110;32;34721;-81
2023/01/27 09:33:42;;;;;;;;;;;;;;;2.90;48.51;100430.34;5404034;32;35614;-80
2023/01/27 09:36:45;;;;;;;;;;;;;;;3.37;47.84;100416.09;5404604;32;45012;-81
2023/01/27 09:39:51;;;;;;;;;;;;;;;2.85;48.90;100436.44;5416783;32;36773;-81
2023/01/27 09:43:02;;;;;;;;;;;;;;;2.35;52.10;100440.16;5385966;32;34709;-80
2023/01/27 09:46:23;;;;;;;;;;;;;;;3.35;51.10;100440.34;5424151;32;34999;-80
2023/01/27 09:49:31;;;;;;;;;;;;;;;3.67;51.00;100430.53;5394102;32;35184;-79
2023/01/27 09:52:52;;;;;;;;;;;;;;;2.81;52.49;100437.31;5407634;32;35327;-82
2023/01/27 09:56:13;;;;;;;;;;;;;;;2.78;53.37;100432.16;5425252;32;35270;-80
2023/01/27 09:59:24;;;;;;;;;;;;;;;2.82;53.99;100432.09;5407069;32;44943;-82
2023/01/27 10:02:45;;;;;;;;;;;;;;;2.34;54.93;100438.44;5413499;32;35000;-81
2023/01/27 10:05:59;;;;;;;;;;;;;;;2.62;55.17;100434.81;5404506;32;42924;-79
2023/01/27 10:09:20;;;;;;;;;;;;;;;3.12;53.07;100423.22;5401585;32;34441;-82
2023/01/27 10:12:54;;;;;;;;;;;;;;;3.88;51.74;100421.62;5414973;32;44868;-83
2023/01/27 10:16:08;;;;;;;;;;;;;;;3.49;52.20;100428.13;5369998;32;37221;-82
2023/01/27 10:19:22;;;;;;;;;;;;;;;3.05;53.61;100424.16;5403515;32;34914;-80
2023/01/27 10:22:27;;;;;;;;;;;;;;;3.88;51.78;100410.37;5416410;32;34409;-80
2023/01/27 10:25:41;;;;;;;;;;;;;;;3.61;51.83;100417.59;5401939;32;35102;-82
2023/01/27 10:28:46;;;;;;;;;;;;;;;4.35;51.15;100421.03;5412966;32;44492;-80
2023/01/27 10:31:53;;;;;;;;;;;;;;;4.10;52.05;100424.84;5391052;32;34420;-81
2023/01/27 10:35:08;;;;;;;;;;;;;;;4.50;51.17;100414.75;5408394;32;34338;-81
2023/01/27 10:38:18;;;;;;;;;;;;;;;3.57;54.68;100425.44;5418755;32;34878;-78
2023/01/27 10:41:23;;;;;;;;;;;;;;;3.88;53.58;100425.97;5400305;32;44796;-79
2023/01/27 10:44:26;;;;;;;;;;;;;;;3.07;55.30;100422.41;5409729;32;34893;-81
2023/01/27 10:47:46;;;;;;;;;;;;;;;3.37;55.25;100420.44;5407082;32;34151;-82
2023/01/27 10:50:51;;;;;;;;;;;;;;;3.22;54.63;100418.81;5417347;32;44003;-78
2023/01/27 10:53:57;;;;;;;;;;;;;;;3.46;56.26;100415.12;5419138;32;36350;-78
2023/01/27 10:57:07;;;;;;;;;;;;;;;3.71;54.65;100419.22;5390539;32;35002;-80
2023/01/27 11:00:12;;;;;;;;;;;;;;;2.90;56.92;100414.75;5426437;32;34390;-81
2023/01/27 11:03:36;;;;;;;;;;;;;;;3.10;57.29;100412.00;5409638;32;35302;-79
2023/01/27 11:06:39;;;;;;;;;;;;;;;2.37;59.74;100407.28;5413005;32;35333;-82
2023/01/27 11:10:01;;;;;;;;;;;;;;;2.31;60.21;100407.31;5405205;32;35653;-80
2023/01/27 11:13:04;;;;;;;;;;;;;;;3.05;59.02;100400.78;5399985;32;34797;-81
2023/01/27 11:16:10;;;;;;;;;;;;;;;2.46;62.71;100402.06;5408349;32;35153;-78
2023/01/27 11:19:14;;;;;;;;;;;;;;;3.61;60.19;100389.00;5400429;32;35033;-82
2023/01/27 11:22:20;;;;;;;;;;;;;;;2.61;63.71;100395.91;5411744;32;44735;-80
2023/01/27 11:25:22;;;;;;;;;;;;;;;2.52;63.00;100394.25;5404949;32;36098;-80
2023/01/27 11:28:28;;;;;;;;;;;;;;;2.54;64.42;100404.62;5404013;32;34925;-79
2023/01/27 11:31:34;;;;;;;;;;;;;;;3.25;63.04;100396.28;5414768;32;34731;-81
2023/01/27 11:34:46;;;;;;;;;;;;;;;2.83;62.79;100392.28;5406059;32;33403;-80
2023/01/27 11:37:49;;;;;;;;;;;;;;;3.02;63.59;100392.16;5414220;32;44406;-78
2023/01/27 11:40:51;;;;;;;;;;;;;;;3.38;63.24;100385.78;5406905;32;34719;-81
2023/01/27 11:43:53;;;;;;;;;;;;;;;4.16;60.38;100369.28;5370700;32;35464;-81
2023/01/27 11:46:57;;;;;;;;;;;;;;;4.08;60.41;100383.25;5412056;32;34951;-81
2023/01/27 11:49:59;;;;;;;;;;;;;;;3.76;62.97;100373.22;5405530;32;35130;-77
2023/01/27 11:53:04;;;;;;;;;;;;;;;3.02;62.21;100382.63;5417315;32;34339;-81
2023/01/27 11:56:08;;;;;;;;;;;;;;;3.17;63.71;100377.31;5405129;32;35010;-80
2023/01/27 11:59:30;;;;;;;;;;;;;;;3.01;63.13;100367.91;5410638;32;34527;-80
2023/01/27 12:02:37;;;;;;;;;;;;;;;2.67;64.64;100360.41;5405328;32;36610;-81
2023/01/27 12:05:43;;;;;;;;;;;;;;;2.60;66.31;100353.53;5404067;32;33320;-79
2023/01/27 12:08:46;;;;;;;;;;;;;;;3.71;62.96;100350.75;5422699;32;44545;-81
2023/01/27 12:11:48;;;;;;;;;;;;;;;2.75;65.96;100357.75;5382204;32;35309;-78
2023/01/27 12:14:59;;;;;;;;;;;;;;;2.04;69.39;100365.09;5418865;32;35059;-78
2023/01/27 12:18:02;;;;;;;;;;;;;;;2.94;67.79;100353.28;5403133;32;35210;-79
2023/01/27 12:21:05;;;;;;;;;;;;;;;2.28;69.11;100350.31;5406439;32;34617;-82
2023/01/27 12:24:12;;;;;;;;;;;;;;;3.16;67.52;100341.84;5420636;32;38008;-80
2023/01/27 12:27:25;;;;;;;;;;;;;;;3.33;67.10;100333.00;5392782;32;45578;-81
2023/01/27 12:30:28;;;;;;;;;;;;;;;3.39;66.46;100338.13;5420061;32;33430;-79
2023/01/27 12:33:31;;;;;;;;;;;;;;;3.12;68.28;100331.47;5381732;32;35624;-81
2023/01/27 12:36:36;;;;;;;;;;;;;;;3.79;64.23;100326.38;5418029;32;35597;-81
2023/01/27 12:39:38;;;;;;;;;;;;;;;3.24;65.86;100326.16;5400183;32;35111;-80
2023/01/27 12:42:41;;;;;;;;;;;;;;;3.03;67.21;100329.84;5382581;32;36246;-80
2023/01/27 12:45:43;;;;;;;;;;;;;;;3.49;65.76;100327.63;5419245;32;45704;-79
2023/01/27 12:48:48;;;;;;;;;;;;;;;2.58;68.84;100326.75;5400300;32;34754;-78
2023/01/27 12:51:53;;;;;;;;;;;;;;;2.64;70.70;100337.09;5404645;32;35438;-79
2023/01/27 12:54:55;;;;;;;;;;;;;;;2.86;69.98;100326.53;5403720;32;35218;-83
2023/01/27 12:57:58;;;;;;;;;;;;;;;3.74;66.33;100324.75;5408819;32;35765;-81
2023/01/27 13:01:01;;;;;;;;;;;;;;;2.79;69.62;100320.53;5410583;32;34507;-81
2023/01/27 13:04:16;;;;;;;;;;;;;;;2.87;68.30;100331.69;5399347;32;34331;-80
2023/01/27 13:07:19;;;;;;;;;;;;;;;3.17;68.34;100325.37;5415610;32;45014;-78
2023/01/27 13:10:22;;;;;;;;;;;;;;;3.56;66.61;100324.97;5398897;32;34937;-80
2023/01/27 13:13:27;;;;;;;;;;;;;;;3.03;68.88;100329.84;5398329;32;34954;-81
2023/01/27 13:16:29;;;;;;;;;;;;;;;2.59;70.03;100330.22;5397959;32;35468;-81
2023/01/27 13:19:37;;;;;;;;;;;;;;;2.69;70.38;100332.69;5392478;32;34302;-80
2023/01/27 13:22:41;;;;;;;;;;;;;;;2.66;69.87;100348.31;5405227;32;35130;-80
2023/01/27 13:25:48;;;;;;;;;;;;;;;2.79;69.48;100345.63;5386274;32;44932;-79
2023/01/27 13:29:10;;;;;;;;;;;;;;;2.78;69.94;100347.38;5417080;32;35757;-79
2023/01/27 13:32:18;;;;;;;;;;;;;;;3.54;65.49;100350.94;5393415;32;38513;-79
2023/01/27 13:35:23;;;;;;;;;;;;;;;2.96;67.63;100341.13;5401086;32;44608;-79
2023/01/27 13:38:48;;;;;;;;;;;;;;;3.09;67.09;100355.75;5417228;32;35085;-80
2023/01/27 13:41:52;;;;;;;;;;;;;;;3.43;66.90;100342.44;5379866;32;45317;-78
2023/01/27 13:45:24;;;;;;;;;;;;;;;2.89;67.93;100347.25;5407206;32;35398;-79
2023/01/27 13:48:29;;;;;;;;;;;;;;;3.25;67.06;100346.94;5388100;32;35206;-79
2023/01/27 13:51:31;;;;;;;;;;;;;;;2.97;68.25;100345.47;5394621;32;34643;-80
2023/01/27 13:54:33;;;;;;;;;;;;;;;3.34;68.42;100352.91;5417904;32;34520;-80
2023/01/27 13:57:40;;;;;;;;;;;;;;;3.43;67.45;100353.69;5392593;32;34225;-80
2023/01/27 14:00:47;;;;;;;;;;;;;;;3.08;67.97;100355.75;5409815;32;36792;-80
2023/01/27 14:04:09;;;;;;;;;;;;;;;3.43;66.65;100347.62;5397679;32;44593;-80
2023/01/27 14:07:34;;;;;;;;;;;;;;;3.98;66.03;100346.97;5394329;32;34802;-81
2023/01/27 14:10:37;;;;;;;;;;;;;;;4.65;62.93;100338.22;5350542;32;949756;-81
2023/01/27 14:13:53;;;;;;;;;;;;;;;5.13;61.62;100338.28;5389895;32;34092;-80
2023/01/27 14:16:55;;;;;;;;;;;;;;;3.52;65.95;100347.50;5406861;32;37599;-78
2023/01/27 14:19:57;;;;;;;;;;;;;;;3.18;67.41;100344.41;5398826;32;34809;-82
2023/01/27 14:23:02;;;;;;;;;;;;;;;3.47;66.95;100344.94;5401880;32;34723;-80
2023/01/27 14:26:11;;;;;;;;;;;;;;;4.03;65.20;100338.22;5402503;32;34656;-81
2023/01/27 14:29:25;;;;;;;;;;;;;;;3.49;65.38;100344.97;5396105;32;43938;-78
2023/01/27 14:32:27;;;;;;;;;;;;;;;3.46;67.92;100347.56;5413985;32;34944;-79
2023/01/27 14:35:58;;;;;;;;;;;;;;;3.57;67.10;100345.72;5392813;32;34878;-80
2023/01/27 14:39:23;;;;;;;;;;;;;;;4.02;65.46;100344.31;5382764;32;35119;-79
2023/01/27 14:42:42;;;;;;;;;;;;;;;3.62;66.79;100343.94;5397562;32;35436;-79
2023/01/27 14:45:48;;;;;;;;;;;;;;;3.71;65.80;100337.75;5399418;32;45081;-78
2023/01/27 14:48:56;;;;;;;;;;;;;;;3.40;67.64;100342.44;5410767;32;35155;-79
2023/01/27 14:52:04;;;;;;;;;;;;;;;3.99;65.72;100340.88;5399244;32;34969;-80
2023/01/27 14:55:18;;;;;;;;;;;;;;;3.32;67.31;100344.25;5393297;32;34402;-79
2023/01/27 14:58:26;;;;;;;;;;;;;;;3.20;66.65;100340.91;5408780;32;44544;-78
2023/01/27 15:01:30;;;;;;;;;;;;;;;3.23;66.93;100346.09;5387125;32;34823;-78
2023/01/27 15:04:43;;;;;;;;;;;;;;;3.59;65.72;100330.97;5419548;32;34542;-81
2023/01/27 15:07:47;;;;;;;;;;;;;;;3.02;66.96;100338.47;5392158;32;44663;-80
2023/01/27 15:10:53;;;;;;;;;;;;;;;3.68;66.95;100343.88;5387128;32;34319;-80
2023/01/27 15:13:55;;;;;;;;;;;;;;;3.72;66.20;100335.13;5395586;32;35450;-78
2023/01/27 15:17:18;;;;;;;;;;;;;;;3.13;67.22;100330.59;5390915;32;36308;-78
2023/01/27 15:20:20;;;;;;;;;;;;;;;3.64;66.24;100339.56;5419546;32;44655;-80
2023/01/27 15:23:40;;;;;;;;;;;;;;;4.56;63.65;100333.13;5391281;32;34634;-78
2023/01/27 15:26:42;;;;;;;;;;;;;;;3.76;64.09;100342.03;5395411;32;34729;-78
2023/01/27 15:29:44;;;;;;;;;;;;;;;3.93;63.72;100323.62;5403247;32;34774;-80
2023/01/27 15:32:46;;;;;;;;;;;;;;;4.31;63.23;100335.22;5392556;32;36706;-79
2023/01/27 15:35:48;;;;;;;;;;;;;;;3.84;63.86;100351.47;5417163;32;33934;-81
2023/01/27 15:38:59;;;;;;;;;;;;;;;2.92;67.04;100357.62;5390954;32;36509;-78
2023/01/27 15:42:01;;;;;;;;;;;;;;;3.62;65.10;100353.47;5400411;32;35379;-80
2023/01/27 15:45:03;;;;;;;;;;;;;;;3.76;65.65;100364.56;5393418;32;33986;-79
2023/01/27 15:48:05;;;;;;;;;;;;;;;3.52;65.53;100365.69;5394681;32;34783;-80
2023/01/27 15:51:10;;;;;;;;;;;;;;;3.72;65.32;100368.06;5420497;32;34132;-80
2023/01/27 15:54:15;;;;;;;;;;;;;;;3.52;64.53;100368.28;5394020;32;34323;-79
2023/01/27 15:57:24;;;;;;;;;;;;;;;3.02;65.48;100366.19;5418365;32;44518;-80
2023/01/27 16:00:32;;;;;;;;;;;;;;;3.43;65.07;100363.22;5391606;32;34632;-81
2023/01/27 16:03:42;;;;;;;;;;;;;;;3.55;65.37;100357.88;5385510;32;34645;-80
2023/01/27 16:07:03;;;;;;;;;;;;;;;3.71;64.31;100353.38;5414961;32;44910;-77
2023/01/27 16:10:07;;;;;;;;;;;;;;;3.70;64.93;100368.09;5387332;32;34038;-81
2023/01/27 16:13:28;;;;;;;;;;;;;;;4.21;61.08;100354.47;5403452;32;34426;-78
2023/01/27 16:16:30;;;;;;;;;;;;;;;3.43;63.75;100371.00;5373234;32;35437;-80
2023/01/27 16:19:46;;;;;;;;;;;;;;;3.71;63.79;100362.03;5392279;32;35543;-79
2023/01/27 16:22:54;;;;;;;;;;;;;;;3.67;63.51;100368.16;5414547;32;44420;-80
2023/01/27 16:26:07;;;;;;;;;;;;;;;3.03;64.29;100373.97;5400078;32;36231;-80
2023/01/27 16:29:18;;;;;;;;;;;;;;;4.53;60.86;100373.09;5411667;32;34225;-81
2023/01/27 16:32:20;;;;;;;;;;;;;;;3.83;62.55;100376.63;5401468;32;44926;-79
2023/01/27 16:35:22;;;;;;;;;;;;;;;3.88;62.53;100379.19;5406481;32;35453;-80